Time;durP1;ratioP1;P1;durP2;ratioP2;P2;SDS_P1;SDS_P2;PMS_P1;PMS_P2;Temp;Humidity;BMP_temperature;BMP_pressure;BME280_temperature;BME280_humidity;BME280_pressure;Samples;Min_cycle;Max_cycle;Signal;HPM_P1;HPM_P2
2023/04/14 00:00:46;;;;;;;0.82;0.82;;;;;;;12.24;65.03;97799.00;4501535;31;33544;-80
2023/04/14 00:03:16;;;;;;;0.30;0.30;;;;;;;12.25;64.70;97798.09;4501675;31;34381;-77
2023/04/14 00:05:44;;;;;;;2.83;1.37;;;;;;;12.10;65.50;97772.62;4501349;31;34969;-75
2023/04/14 00:08:12;;;;;;;0.50;0.50;;;;;;;11.89;65.41;97769.13;4501780;31;34485;-76
2023/04/14 00:10:40;;;;;;;0.45;0.45;;;;;;;11.70;66.03;97775.09;4501555;31;34397;-76
2023/04/14 00:13:08;;;;;;;2.20;1.80;;;;;;;12.28;63.78;97782.31;4501462;31;34703;-76
2023/04/14 00:15:36;;;;;;;0.85;0.85;;;;;;;12.19;63.99;97780.06;4501411;31;35029;-76
2023/04/14 00:18:04;;;;;;;0.43;0.43;;;;;;;12.12;63.78;97782.09;4501243;31;34471;-76
2023/04/14 00:20:32;;;;;;;1.37;1.27;;;;;;;12.33;63.03;97779.47;4500460;31;33292;-76
2023/04/14 00:23:00;;;;;;;0.43;0.43;;;;;;;12.59;61.43;97791.41;4501228;31;33989;-76
2023/04/14 00:25:29;;;;;;;1.00;1.00;;;;;;;12.33;62.58;97782.09;4501061;31;35794;-76
2023/04/14 00:27:57;;;;;;;1.60;0.73;;;;;;;12.25;62.48;97787.66;4501427;31;35173;-76
2023/04/14 00:30:25;;;;;;;0.98;0.98;;;;;;;12.01;64.00;97783.47;4501353;31;34225;-76
2023/04/14 00:32:53;;;;;;;0.75;0.75;;;;;;;12.26;63.11;97788.50;4501193;31;34657;-77
2023/04/14 00:35:23;;;;;;;0.52;0.52;;;;;;;12.70;60.22;97786.53;4501129;31;35900;-77
2023/04/14 00:37:51;;;;;;;0.50;0.50;;;;;;;12.75;59.58;97778.53;4501195;31;34313;-77
2023/04/14 00:40:19;;;;;;;1.25;1.15;;;;;;;12.68;60.01;97774.50;4501137;31;34134;-77
2023/04/14 00:42:47;;;;;;;0.68;0.68;;;;;;;12.50;60.53;97773.53;4500976;31;33865;-77
2023/04/14 00:45:16;;;;;;;0.40;0.40;;;;;;;12.52;60.65;97771.72;4501091;31;35923;-77
2023/04/14 00:47:49;;;;;;;4.62;1.95;;;;;;;12.81;59.36;97774.78;4500885;31;35234;-77
2023/04/14 00:50:18;;;;;;;0.40;0.40;;;;;;;12.97;58.59;97767.09;4487452;31;33421;-76
2023/04/14 00:52:48;;;;;;;0.68;0.68;;;;;;;12.83;59.68;97759.87;4486958;31;33920;-76
2023/04/14 00:55:19;;;;;;;0.30;0.30;;;;;;;12.56;60.44;97762.81;4501034;31;35012;-77
2023/04/14 00:57:48;;;;;;;0.50;0.50;;;;;;;12.41;60.79;97760.91;4487064;31;35346;-77
2023/04/14 01:00:16;;;;;;;1.23;1.12;;;;;;;12.60;60.02;97758.31;4500912;31;33713;-77
2023/04/14 01:02:44;;;;;;;0.75;0.75;;;;;;;12.26;60.88;97747.56;4500819;31;33781;-76
2023/04/14 01:05:12;;;;;;;0.40;0.40;;;;;;;12.11;61.30;97743.03;4500829;31;35161;-77
2023/04/14 01:07:41;;;;;;;0.52;0.52;;;;;;;12.44;60.21;97735.50;4486641;31;34636;-76
2023/04/14 01:10:10;;;;;;;0.40;0.40;;;;;;;12.45;59.45;97728.50;4473800;31;32923;-76
2023/04/14 01:13:12;;;;;;;1.55;1.45;;;;;;;12.79;58.50;97724.38;4500505;31;34609;-76
2023/04/14 01:15:59;;;;;;;0.30;0.30;;;;;;;12.37;59.54;97707.13;4500623;31;35090;-76
2023/04/14 01:18:33;;;;;;;0.77;0.77;;;;;;;12.32;59.75;97683.84;4500625;31;34496;-77
2023/04/14 01:21:05;;;;;;;0.60;0.57;;;;;;;12.22;60.54;97688.59;4500857;31;34357;-76
2023/04/14 01:23:51;;;;;;;0.45;0.45;;;;;;;11.62;61.90;97682.47;4500404;31;33923;-77
2023/04/14 01:26:21;;;;;;;1.42;0.95;;;;;;;12.00;59.94;97674.81;4486299;31;35145;-76
2023/04/14 01:28:58;;;;;;;0.90;0.88;;;;;;;12.19;60.02;97669.63;4486275;31;35799;-76
2023/04/14 01:31:29;;;;;;;0.60;0.60;;;;;;;11.90;60.66;97661.28;4501631;31;33523;-76
2023/04/14 01:34:01;;;;;;;0.50;0.50;;;;;;;11.94;59.79;97657.66;4488820;31;33678;-77
2023/04/14 01:36:38;;;;;;;7.85;0.80;;;;;;;12.00;59.79;97667.84;4488462;31;35802;-76
2023/04/14 01:39:09;;;;;;;0.45;0.45;;;;;;;12.27;58.10;97676.22;4488536;31;34441;-77
2023/04/14 01:41:39;;;;;;;0.65;0.65;;;;;;;12.40;57.08;97679.09;4475395;31;32428;-76
2023/04/14 01:44:08;;;;;;;0.50;0.50;;;;;;;12.54;57.37;97668.03;4488638;31;33998;-77
2023/04/14 01:46:37;;;;;;;0.45;0.45;;;;;;;12.14;58.37;97657.66;4488407;31;35027;-77
2023/04/14 01:49:05;;;;;;;0.88;0.88;;;;;;;12.18;58.27;97657.47;4488627;31;34474;-77
2023/04/14 01:51:34;;;;;;;0.60;0.60;;;;;;;12.05;58.69;97665.88;4502666;31;34587;-77
2023/04/14 01:54:03;;;;;;;1.42;1.33;;;;;;;12.37;58.26;97660.13;4488570;31;34584;-77
2023/04/14 01:56:32;;;;;;;0.35;0.35;;;;;;;12.31;57.42;97656.88;4488559;31;35120;-77
2023/04/14 01:59:01;;;;;;;0.50;0.50;;;;;;;12.64;56.65;97658.88;4488228;31;34234;-76
2023/04/14 02:01:29;;;;;;;0.98;0.98;;;;;;;12.28;58.00;97644.00;4488330;31;34280;-77
2023/04/14 02:03:59;;;;;;;0.62;0.62;;;;;;;12.51;57.09;97631.63;4502433;31;34857;-77
2023/04/14 02:06:27;;;;;;;0.60;0.60;;;;;;;12.84;55.61;97625.75;4488447;31;34884;-77
2023/04/14 02:09:01;;;;;;;0.85;0.85;;;;;;;12.33;57.33;97631.59;4476044;31;34204;-77
2023/04/14 02:11:30;;;;;;;0.40;0.40;;;;;;;12.00;59.28;97635.66;4488679;31;33421;-77
2023/04/14 02:13:59;;;;;;;0.90;0.88;;;;;;;12.42;56.33;97638.13;4488371;31;34040;-77
2023/04/14 02:16:28;;;;;;;0.80;0.80;;;;;;;12.42;56.70;97639.88;4488324;31;34977;-77
2023/04/14 02:18:56;;;;;;;0.47;0.47;;;;;;;12.65;55.85;97644.06;4488099;31;34419;-76
2023/04/14 02:21:27;;;;;;;0.40;0.40;;;;;;;12.74;55.15;97643.66;4502529;31;33522;-77
2023/04/14 02:23:55;;;;;;;0.75;0.75;;;;;;;12.40;56.70;97662.59;4488154;31;33951;-77
2023/04/14 02:26:26;;;;;;;0.65;0.65;;;;;;;12.52;55.49;97657.66;4502302;31;35921;-77
2023/04/14 02:29:14;;;;;;;1.77;1.05;;;;;;;12.62;55.72;97654.66;4488280;31;34525;-77
2023/04/14 02:31:44;;;;;;;0.52;0.52;;;;;;;12.96;55.17;97671.38;4488044;31;33534;-77
2023/04/14 02:34:17;;;;;;;0.85;0.60;;;;;;;12.77;55.38;97658.31;4488047;31;34688;-77
2023/04/14 02:36:52;;;;;;;0.95;0.95;;;;;;;13.13;54.37;97657.47;4488360;31;35005;-77
2023/04/14 02:39:30;;;;;;;0.65;0.65;;;;;;;13.41;53.24;97659.63;4502098;31;35118;-76
2023/04/14 02:42:02;;;;;;;0.40;0.40;;;;;;;12.81;55.03;97654.63;4472434;31;33711;-82
2023/04/14 02:44:34;;;;;;;0.50;0.50;;;;;;;12.87;54.98;97654.34;4470593;32;33785;-77
2023/04/14 02:47:06;;;;;;;0.77;0.77;;;;;;;12.55;56.06;97654.09;4456827;32;34895;-76
2023/04/14 02:49:45;;;;;;;0.47;0.47;;;;;;;12.48;56.41;97647.47;4457051;32;35140;-79
2023/04/14 02:52:15;;;;;;;0.50;0.50;;;;;;;12.26;56.15;97648.41;4457088;32;32753;-77
2023/04/14 02:54:45;;;;;;;0.30;0.30;;;;;;;12.73;55.37;97652.38;4443791;32;33616;-76
2023/04/14 02:57:13;;;;;;;4.85;1.23;;;;;;;12.75;55.46;97641.88;4456792;32;34999;-76
2023/04/14 02:59:42;;;;;;;1.15;1.15;;;;;;;12.80;55.38;97650.34;4456854;32;34604;-76
2023/04/14 03:02:11;;;;;;;0.35;0.35;;;;;;;12.66;55.65;97630.94;4444070;32;32682;-76
2023/04/14 03:04:40;;;;;;;0.65;0.65;;;;;;;12.57;57.10;97633.97;4470576;32;34829;-76
2023/04/14 03:07:11;;;;;;;0.93;0.93;;;;;;;12.77;55.27;97632.19;4470822;32;34906;-76
2023/04/14 03:09:41;;;;;;;0.40;0.40;;;;;;;12.73;55.67;97638.50;4456631;32;33611;-77
2023/04/14 03:12:13;;;;;;;0.62;0.62;;;;;;;12.87;54.93;97638.69;4470878;32;33514;-77
2023/04/14 03:14:42;;;;;;;1.30;1.27;;;;;;;12.60;55.69;97618.16;4470573;32;34698;-76
2023/04/14 03:17:10;;;;;;;0.45;0.45;;;;;;;13.05;54.30;97626.50;4456509;32;35133;-76
2023/04/14 03:19:40;;;;;;;0.55;0.55;;;;;;;12.79;54.92;97610.28;4473963;31;34532;-79
2023/04/14 03:22:09;;;;;;;0.30;0.30;;;;;;;12.66;55.27;97610.03;4475239;31;31996;-77
2023/04/14 03:24:38;;;;;;;1.48;1.37;;;;;;;12.74;56.02;97601.84;4501783;31;33917;-77
2023/04/14 03:27:12;;;;;;;0.30;0.30;;;;;;;12.58;56.51;97595.66;4502145;31;35162;-75
2023/04/14 03:29:47;;;;;;;1.40;1.30;;;;;;;12.58;57.22;97599.09;4488197;31;35220;-76
2023/04/14 03:32:16;;;;;;;1.08;1.08;;;;;;;12.77;56.72;97611.31;4487913;31;34468;-78
2023/04/14 03:34:49;;;;;;;0.50;0.50;;;;;;;12.65;56.24;97626.62;4487688;31;33981;-80
2023/04/14 03:37:17;;;;;;;0.62;0.62;;;;;;;12.70;56.44;97629.84;4487992;31;35951;-81
2023/04/14 03:39:46;;;;;;;22.45;1.95;;;;;;;13.09;54.90;97628.91;4487729;31;34426;-81
2023/04/14 03:42:15;;;;;;;0.75;0.75;;;;;;;12.73;56.20;97639.31;4487792;31;33543;-82
2023/04/14 03:44:48;;;;;;;1.95;1.67;;;;;;;12.59;56.25;97641.75;4501904;31;33888;-81
2023/04/14 03:47:18;;;;;;;0.40;0.40;;;;;;;12.71;56.31;97673.34;4488503;31;35885;-80
2023/04/14 03:49:48;;;;;;;0.73;0.73;;;;;;;12.89;55.57;97689.09;4502026;31;34458;-82
2023/04/14 03:52:16;;;;;;;1.35;1.25;;;;;;;12.94;55.97;97678.44;4487627;31;34306;-81
2023/04/14 03:54:46;;;;;;;0.70;0.70;;;;;;;12.71;56.81;97680.34;4487714;31;33985;-84
2023/04/14 03:57:16;;;;;;;0.60;0.60;;;;;;;12.83;57.11;97673.69;4488982;31;35794;-84
2023/04/14 03:59:46;;;;;;;0.70;0.70;;;;;;;12.83;56.82;97681.50;4485308;31;35266;-80
2023/04/14 04:02:16;;;;;;;0.50;0.50;;;;;;;12.58;57.21;97674.81;4487884;31;33534;-82
2023/04/14 04:04:46;;;;;;;1.52;1.42;;;;;;;12.60;57.60;97665.16;4483789;31;32775;-80
2023/04/14 04:07:14;;;;;;;1.30;1.12;;;;;;;13.04;56.19;97659.63;4456271;32;35116;-80
2023/04/14 04:09:43;;;;;;;0.40;0.40;;;;;;;12.86;56.81;97657.88;4456102;32;34492;-80
2023/04/14 04:12:12;;;;;;;1.30;1.20;;;;;;;12.89;56.77;97652.50;4455775;32;33552;-80
2023/04/14 04:14:40;;;;;;;1.37;1.27;;;;;;;12.37;58.96;97654.91;4456252;32;33859;-80
2023/04/14 04:17:11;;;;;;;0.82;0.82;;;;;;;12.44;58.50;97651.97;4455900;32;35179;-80
2023/04/14 04:19:41;;;;;;;0.32;0.32;;;;;;;12.45;58.85;97647.59;4469958;32;34492;-80
2023/04/14 04:22:13;;;;;;;0.85;0.85;;;;;;;12.62;58.59;97645.06;4455828;32;33750;-80
2023/04/14 04:24:44;;;;;;;0.40;0.40;;;;;;;12.49;58.73;97629.13;4452852;32;34702;-80
2023/04/14 04:27:15;;;;;;;1.00;1.00;;;;;;;12.40;59.78;97628.69;4453341;32;34954;-80
2023/04/14 04:29:56;;;;;;;0.75;0.75;;;;;;;12.26;60.50;97611.03;4454005;32;34465;-81
2023/04/14 04:32:24;;;;;;;0.70;0.70;;;;;;;12.26;60.44;97608.41;4453578;32;33326;-83
2023/04/14 04:34:53;;;;;;;0.85;0.85;;;;;;;12.36;60.40;97606.25;4454474;32;33811;-81
2023/04/14 04:37:27;;;;;;;0.55;0.55;;;;;;;12.29;60.02;97606.50;4453229;32;35052;-81
2023/04/14 04:39:57;;;;;;;0.60;0.60;;;;;;;12.26;60.40;97598.81;4453410;32;33965;-81
2023/04/14 04:42:25;;;;;;;0.85;0.82;;;;;;;12.37;60.32;97605.31;4453324;32;32676;-83
2023/04/14 04:44:54;;;;;;;0.57;0.57;;;;;;;12.33;59.25;97623.75;4454342;32;33788;-81
2023/04/14 04:47:23;;;;;;;0.62;0.62;;;;;;;12.64;58.60;97627.53;4454215;32;35125;-81
2023/04/14 04:49:51;;;;;;;0.60;0.60;;;;;;;12.52;58.52;97633.34;4454097;32;34449;-82
2023/04/14 04:52:19;;;;;;;0.45;0.45;;;;;;;12.67;58.44;97627.41;4454104;32;33695;-81
2023/04/14 04:54:51;;;;;;;0.55;0.55;;;;;;;12.67;58.31;97624.81;4452852;32;34870;-84
2023/04/14 04:57:19;;;;;;;1.40;1.30;;;;;;;12.40;59.13;97621.69;4453991;32;34963;-81
2023/04/14 04:59:47;;;;;;;0.95;0.95;;;;;;;12.40;59.96;97633.91;4453766;32;34437;-81
2023/04/14 05:02:15;;;;;;;0.85;0.85;;;;;;;12.46;59.22;97644.06;4453994;32;33347;-82
2023/04/14 05:04:43;;;;;;;0.57;0.57;;;;;;;12.61;58.43;97645.97;4454304;32;34034;-79
2023/04/14 05:07:11;;;;;;;0.75;0.75;;;;;;;12.66;58.14;97659.66;4455273;32;35187;-80
2023/04/14 05:09:39;;;;;;;0.73;0.70;;;;;;;12.75;58.07;97658.38;4455693;32;35238;-80
2023/04/14 05:12:08;;;;;;;0.98;0.98;;;;;;;12.54;59.27;97662.00;4455866;32;33647;-79
2023/04/14 05:14:36;;;;;;;0.60;0.60;;;;;;;12.51;58.53;97657.72;4455745;32;33908;-79
2023/04/14 05:17:04;;;;;;;0.82;0.82;;;;;;;12.59;59.29;97653.03;4455681;32;35292;-81
2023/04/14 05:19:33;;;;;;;2.25;1.62;;;;;;;12.52;60.50;97651.59;4455746;32;35209;-81
2023/04/14 05:22:01;;;;;;;0.75;0.75;;;;;;;12.71;58.75;97660.28;4455745;32;33321;-81
2023/04/14 05:24:29;;;;;;;0.75;0.65;;;;;;;12.44;59.49;97653.72;4462691;32;33917;-82
2023/04/14 05:26:57;;;;;;;0.50;0.50;;;;;;;12.45;60.61;97660.63;4457324;32;35095;-83
2023/04/14 05:29:32;;;;;;;1.35;1.25;;;;;;;12.76;58.68;97661.84;4471317;32;34913;-79
2023/04/14 05:32:00;;;;;;;1.23;1.12;;;;;;;12.29;59.76;97658.72;4457308;32;33385;-82
2023/04/14 05:34:28;;;;;;;0.90;0.88;;;;;;;12.04;61.64;97653.75;4471192;32;34610;-81
2023/04/14 05:36:56;;;;;;;2.22;0.93;;;;;;;12.41;59.96;97657.31;4471300;32;35951;-81
2023/04/14 05:39:24;;;;;;;1.42;1.27;;;;;;;12.22;60.55;97662.50;4457267;32;35111;-82
2023/04/14 05:41:52;;;;;;;0.73;0.73;;;;;;;12.27;60.58;97665.78;4457129;32;34230;-82
2023/04/14 05:44:21;;;;;;;1.15;1.12;;;;;;;12.10;60.34;97650.00;4470972;32;33898;-82
2023/04/14 05:46:50;;;;;;;0.75;0.75;;;;;;;12.60;60.15;97665.16;4471149;32;35938;-81
2023/04/14 05:49:18;;;;;;;0.88;0.88;;;;;;;12.02;61.20;97670.34;4471091;32;34536;-83
2023/04/14 05:51:45;;;;;;;2.35;2.12;;;;;;;12.52;59.44;97675.09;4471179;32;34319;-82
2023/04/14 05:54:14;;;;;;;1.05;0.95;;;;;;;12.78;58.58;97678.31;4471147;32;34798;-80
2023/04/14 05:56:43;;;;;;;0.95;0.90;;;;;;;12.17;61.58;97685.34;4471062;32;35748;-88
2023/04/14 05:59:15;;;;;;;1.10;1.05;;;;;;;12.31;61.22;97680.38;4457785;32;35074;-82
2023/04/14 06:01:43;;;;;;;0.75;0.75;;;;;;;12.43;60.80;97659.88;4470943;32;32901;-81
2023/04/14 06:04:14;;;;;;;0.50;0.43;;;;;;;12.57;60.81;97657.47;4471048;32;33186;-82
2023/04/14 06:06:42;;;;;;;0.60;0.60;;;;;;;12.39;61.82;97660.91;4469475;32;35101;-81
2023/04/14 06:09:12;;;;;;;0.57;0.57;;;;;;;12.38;62.57;97660.06;4470599;32;34480;-82
2023/04/14 06:11:40;;;;;;;0.60;0.60;;;;;;;12.18;63.11;97655.75;4469556;32;33014;-82
2023/04/14 06:14:08;;;;;;;1.30;0.70;;;;;;;12.64;62.66;97663.25;4470985;32;34631;-81
2023/04/14 06:16:36;;;;;;;1.60;1.50;;;;;;;12.41;63.13;97656.47;4470935;32;34915;-81
2023/04/14 06:19:05;;;;;;;0.40;0.40;;;;;;;12.28;63.41;97661.37;4470233;32;34666;-81
2023/04/14 06:21:33;;;;;;;0.62;0.62;;;;;;;12.64;61.24;97648.44;4470836;32;33487;-81
2023/04/14 06:24:01;;;;;;;1.55;1.30;;;;;;;12.71;60.85;97649.00;4470306;32;34753;-81
2023/04/14 06:26:31;;;;;;;0.88;0.88;;;;;;;12.55;61.76;97642.78;4470986;32;35079;-81
2023/04/14 06:28:59;;;;;;;0.60;0.60;;;;;;;12.92;60.21;97641.94;4456939;32;35199;-81
2023/04/14 06:31:28;;;;;;;0.73;0.73;;;;;;;12.95;59.55;97638.31;4470826;32;34414;-81
2023/04/14 06:33:56;;;;;;;0.32;0.32;;;;;;;12.83;60.56;97637.97;4470760;32;33836;-81
2023/04/14 06:36:24;;;;;;;2.83;2.58;;;;;;;12.52;62.47;97638.56;4470721;32;35040;-81
2023/04/14 06:38:52;;;;;;;0.60;0.60;;;;;;;12.73;62.51;97633.25;4456768;32;34321;-80
2023/04/14 06:41:21;;;;;;;0.50;0.50;;;;;;;13.12;60.52;97632.28;4470625;32;34364;-81
2023/04/14 06:43:49;;;;;;;0.50;0.50;;;;;;;13.04;59.55;97620.44;4470743;32;33977;-81
2023/04/14 06:46:17;;;;;;;1.23;1.15;;;;;;;12.96;61.22;97625.19;4470608;32;36162;-85
2023/04/14 06:48:46;;;;;;;0.93;0.93;;;;;;;13.41;59.16;97625.63;4456817;32;34439;-81
2023/04/14 06:51:17;;;;;;;5.72;2.78;;;;;;;12.85;59.68;97620.47;4456612;32;33078;-81
2023/04/14 06:53:45;;;;;;;1.40;1.20;;;;;;;13.25;59.70;97609.84;4470726;32;33955;-81
2023/04/14 06:56:13;;;;;;;2.55;1.70;;;;;;;13.11;60.53;97618.34;4470727;32;35954;-81
2023/04/14 06:58:41;;;;;;;1.17;1.12;;;;;;;13.51;59.06;97634.72;4456630;32;33895;-81
2023/04/14 07:01:28;;;;;;;1.52;1.42;;;;;;;13.51;59.69;97633.88;4470740;32;34107;-82
2023/04/14 07:04:15;;;;;;;;;;;;;;;13.35;58.68;97639.88;4471053;32;34640;-82
2023/04/14 07:06:43;;;;;;;0.95;0.93;;;;;;;13.26;59.26;97630.69;4470856;32;35429;-82
2023/04/14 07:09:12;;;;;;;1.08;1.02;;;;;;;12.93;59.11;97630.53;4470615;32;34377;-82
2023/04/14 07:11:40;;;;;;;0.73;0.73;;;;;;;13.18;58.58;97631.97;4470617;32;33416;-81
2023/04/14 07:14:08;;;;;;;0.77;0.77;;;;;;;12.57;60.36;97625.31;4456716;32;34736;-82
2023/04/14 07:16:37;;;;;;;1.27;1.17;;;;;;;13.10;59.82;97629.75;4470587;32;35902;-82
2023/04/14 07:19:06;;;;;;;1.85;1.25;;;;;;;12.87;60.39;97629.06;4470557;32;34111;-82
2023/04/14 07:21:36;;;;;;;0.52;0.52;;;;;;;12.92;60.49;97630.59;4456585;32;33282;-83
2023/04/14 07:24:04;;;;;;;0.57;0.57;;;;;;;13.24;60.02;97634.28;4470255;32;34625;-82
2023/04/14 07:26:32;;;;;;;1.15;1.10;;;;;;;13.11;60.64;97627.97;4470410;32;36035;-81
2023/04/14 07:29:01;;;;;;;0.90;0.90;;;;;;;13.18;59.64;97616.28;4470086;32;34866;-82
2023/04/14 07:31:32;;;;;;;0.65;0.65;;;;;;;13.32;59.72;97613.03;4470504;32;33347;-81
2023/04/14 07:34:01;;;;;;;0.55;0.55;;;;;;;13.11;60.31;97615.72;4470435;32;33787;-81
2023/04/14 07:36:31;;;;;;;0.60;0.60;;;;;;;13.53;59.25;97616.34;4470496;32;35017;-82
2023/04/14 07:38:59;;;;;;;1.10;0.95;;;;;;;13.79;58.29;97610.63;4470454;32;34425;-81
2023/04/14 07:41:30;;;;;;;0.52;0.52;;;;;;;13.46;61.60;97610.56;4470312;32;33702;-82
2023/04/14 07:43:58;;;;;;;1.60;1.50;;;;;;;13.73;59.50;97610.97;4470425;32;34566;-82
2023/04/14 07:46:27;;;;;;;0.40;0.40;;;;;;;13.92;58.40;97604.75;4470345;32;35804;-81
2023/04/14 07:48:59;;;;;;;1.00;0.95;;;;;;;13.47;62.03;97614.87;4470436;32;35207;-82
2023/04/14 07:51:26;;;;;;;0.70;0.70;;;;;;;13.39;60.46;97612.62;4470335;32;34248;-82
2023/04/14 07:53:55;;;;;;;1.12;1.10;;;;;;;13.45;61.37;97619.34;4470205;32;34074;-82
2023/04/14 07:56:23;;;;;;;2.08;1.85;;;;;;;13.41;61.63;97618.66;4443671;32;35124;-82
2023/04/14 07:58:51;;;;;;;0.55;0.55;;;;;;;13.74;60.53;97612.62;4456376;32;33683;-82
2023/04/14 08:01:19;;;;;;;0.62;0.62;;;;;;;14.14;58.74;97617.56;4456244;32;34152;-81
2023/04/14 08:03:47;;;;;;;2.00;1.65;;;;;;;14.29;58.74;97615.91;4470109;32;33635;-82
2023/04/14 08:06:15;;;;;;;0.77;0.77;;;;;;;14.01;58.99;97617.34;4470145;32;35106;-81
2023/04/14 08:08:44;;;;;;;1.08;1.05;;;;;;;13.75;61.18;97616.13;4470117;32;35089;-82
2023/04/14 08:11:12;;;;;;;0.73;0.73;;;;;;;13.69;60.39;97606.78;4443387;32;33572;-81
2023/04/14 08:13:42;;;;;;;2.03;1.67;;;;;;;14.13;58.96;97603.62;4470016;32;33874;-81
2023/04/14 08:16:10;;;;;;;1.30;1.20;;;;;;;13.43;61.80;97606.34;4456095;32;34959;-81
2023/04/14 08:18:39;;;;;;;1.20;1.10;;;;;;;13.72;60.17;97597.94;4470223;32;35050;-80
2023/04/14 08:21:07;;;;;;;3.08;1.62;;;;;;;14.00;59.16;97594.75;4469992;32;33136;-81
2023/04/14 08:23:40;;;;;;;1.02;1.00;;;;;;;13.62;61.09;97598.44;4469580;32;34048;-82
2023/04/14 08:26:08;;;;;;;0.60;0.60;;;;;;;14.28;58.41;97588.03;4470042;32;34776;-81
2023/04/14 08:28:41;;;;;;;1.08;1.05;;;;;;;14.21;58.78;97585.75;4456682;32;34404;-81
2023/04/14 08:31:11;;;;;;;0.77;0.77;;;;;;;13.68;62.63;97591.16;4469910;32;33820;-80
2023/04/14 08:33:39;;;;;;;1.20;0.88;;;;;;;13.72;60.95;97593.56;4469784;32;34701;-80
2023/04/14 08:36:07;;;;;;;0.52;0.52;;;;;;;13.91;59.89;97596.06;4469797;32;35170;-81
2023/04/14 08:38:35;;;;;;;4.45;1.20;;;;;;;13.70;61.88;97591.97;4469761;32;35283;-81
2023/04/14 08:41:08;;;;;;;1.80;1.65;;;;;;;13.99;59.95;97598.28;4455308;32;34194;-81
2023/04/14 08:43:37;;;;;;;0.70;0.70;;;;;;;14.06;59.93;97609.28;4456245;32;34003;-81
2023/04/14 08:46:09;;;;;;;0.62;0.62;;;;;;;13.92;61.02;97618.69;4469616;32;35092;-81
2023/04/14 08:48:40;;;;;;;0.62;0.47;;;;;;;13.72;62.65;97621.50;4456100;32;34424;-81
2023/04/14 08:51:33;;;;;;;0.95;0.95;;;;;;;13.75;62.68;97621.34;4469671;32;33632;-81
2023/04/14 08:54:03;;;;;;;0.50;0.50;;;;;;;13.93;62.57;97620.38;4456012;32;33959;-80
2023/04/14 08:56:33;;;;;;;0.90;0.82;;;;;;;13.05;69.72;97611.66;4455623;32;34175;-80
2023/04/14 08:59:05;;;;;;;1.10;1.10;;;;;;;13.53;66.05;97626.81;4455889;32;34233;-81
2023/04/14 09:01:35;;;;;;;1.83;1.73;;;;;;;13.86;64.84;97626.03;4455768;32;33525;-80
2023/04/14 09:04:04;;;;;;;1.02;0.95;;;;;;;13.14;69.93;97614.75;4455689;32;34121;-81
2023/04/14 09:06:33;;;;;;;0.85;0.85;;;;;;;12.70;71.53;97616.78;4455436;32;35988;-84
2023/04/14 09:09:03;;;;;;;0.80;0.80;;;;;;;13.15;72.14;97626.91;4469296;32;34398;-84
2023/04/14 09:11:31;;;;;;;0.80;0.80;;;;;;;12.44;76.56;97625.88;4455610;32;34178;-80
2023/04/14 09:14:00;;;;;;;1.67;1.58;;;;;;;12.92;73.44;97620.16;4455363;32;34719;-85
2023/04/14 09:16:30;;;;;;;1.20;1.12;;;;;;;12.75;74.45;97626.19;4469318;32;35110;-81
2023/04/14 09:18:59;;;;;;;1.50;1.17;;;;;;;12.49;75.68;97636.09;4455300;32;35214;-81
2023/04/14 09:21:37;;;;;;;2.78;1.05;;;;;;;12.99;74.32;97632.88;4468992;32;34515;-81
2023/04/14 09:24:28;;;;;;;0.73;0.73;;;;;;;12.75;74.85;97642.72;4468744;32;34027;-81
2023/04/14 09:27:05;;;;;;;2.42;2.20;;;;;;;12.39;78.60;97642.62;4455797;32;35172;-81
2023/04/14 09:29:35;;;;;;;0.50;0.50;;;;;;;12.59;76.78;97644.34;4455212;32;35076;-81
2023/04/14 09:32:05;;;;;;;2.62;2.40;;;;;;;12.31;79.45;97641.22;4469152;32;33491;-80
2023/04/14 09:34:34;;;;;;;2.90;0.68;;;;;;;12.50;78.12;97640.41;4468999;32;34084;-80
2023/04/14 09:37:06;;;;;;;2.47;2.15;;;;;;;12.75;77.63;97647.09;4468923;32;34956;-81
2023/04/14 09:39:47;;;;;;;0.45;0.45;;;;;;;12.92;76.25;97652.38;4455303;32;34437;-81
2023/04/14 09:42:16;;;;;;;0.80;0.80;;;;;;;12.62;80.38;97647.66;4468786;32;33561;-80
2023/04/14 09:44:54;;;;;;;1.23;1.12;;;;;;;12.82;79.21;97648.50;4455205;32;33911;-80
2023/04/14 09:47:23;;;;;;;0.55;0.55;;;;;;;12.49;81.89;97643.91;4469065;32;35116;-80
2023/04/14 09:50:01;;;;;;;3.60;2.97;;;;;;;12.97;78.42;97644.31;4468857;32;34608;-80
2023/04/14 09:52:41;;;;;;;1.08;1.08;;;;;;;12.57;82.21;97641.81;4456012;32;34167;-80
2023/04/14 09:55:12;;;;;;;1.55;0.95;;;;;;;12.95;81.67;97633.91;4457386;32;33996;-83
2023/04/14 09:57:41;;;;;;;2.12;1.87;;;;;;;12.50;82.71;97629.94;4471034;32;35906;-80
2023/04/14 10:00:19;;;;;;;1.27;1.17;;;;;;;12.23;85.06;97632.03;4471117;32;34587;-81
2023/04/14 10:02:56;;;;;;;1.67;1.58;;;;;;;12.94;83.16;97639.25;4471056;32;33472;-81
2023/04/14 10:05:27;;;;;;;2.30;2.10;;;;;;;12.44;83.45;97635.44;4470995;32;33901;-79
2023/04/14 10:08:04;;;;;;;2.10;2.00;;;;;;;12.49;86.30;97636.09;4471121;32;35144;-80
2023/04/14 10:10:33;;;;;;;5.90;1.92;;;;;;;12.58;86.43;97648.69;4470930;32;35311;-80
2023/04/14 10:13:01;;;;;;;1.52;1.25;;;;;;;12.63;85.14;97643.28;4470959;32;33694;-82
2023/04/14 10:15:29;;;;;;;2.92;2.70;;;;;;;13.41;81.10;97641.31;4471012;32;34823;-80
2023/04/14 10:18:05;;;;;;;;;;;;;;;12.63;84.37;97646.72;4458321;32;35087;-81
2023/04/14 10:20:33;;;;;;;1.58;1.15;;;;;;;12.93;82.48;97648.00;4471070;32;34625;-81
2023/04/14 10:23:04;;;;;;;1.90;1.80;;;;;;;13.03;82.46;97646.63;4470808;32;33460;-81
2023/04/14 10:25:32;;;;;;;0.50;0.50;;;;;;;12.56;84.99;97645.31;4453957;32;33909;-81
2023/04/14 10:28:01;;;;;;;1.02;1.00;;;;;;;12.77;85.20;97647.88;4454056;32;35183;-80
2023/04/14 10:30:30;;;;;;;1.05;1.05;;;;;;;12.46;86.29;97647.53;4454169;32;35042;-80
2023/04/14 10:32:58;;;;;;;1.45;1.35;;;;;;;12.47;85.62;97637.91;4454122;32;33619;-80
2023/04/14 10:35:36;;;;;;;0.80;0.80;;;;;;;12.67;86.14;97642.22;4454130;32;33966;-79
2023/04/14 10:38:04;;;;;;;0.52;0.52;;;;;;;12.40;89.13;97645.19;4454105;32;35175;-86
2023/04/14 10:40:47;;;;;;;0.62;0.62;;;;;;;12.59;86.93;97650.41;4455186;32;34536;-84
2023/04/14 10:43:16;;;;;;;0.65;0.65;;;;;;;12.55;87.02;97643.66;4454467;32;33569;-86
2023/04/14 10:45:58;;;;;;;1.35;1.27;;;;;;;12.57;86.95;97652.25;4452988;32;34596;-82
2023/04/14 10:48:34;;;;;;;0.75;0.75;;;;;;;12.18;90.02;97650.53;4454673;32;35922;-81
2023/04/14 10:51:07;;;;;;;1.87;1.35;;;;;;;12.14;90.92;97655.03;4455953;32;34304;-81
2023/04/14 10:53:38;;;;;;;0.52;0.52;;;;;;;12.13;92.00;97649.88;4456746;32;33560;-83
2023/04/14 10:56:06;;;;;;;3.53;1.60;;;;;;;12.13;91.42;97653.31;4459743;32;33072;-83
2023/04/14 10:58:35;;;;;;;0.80;0.75;;;;;;;12.16;90.79;97651.50;4459602;32;33815;-82
2023/04/14 11:01:28;;;;;;;2.47;2.28;;;;;;;12.19;90.80;97646.97;4459185;32;31814;-82
2023/04/14 11:04:16;;;;;;;1.10;1.10;;;;;;;12.30;90.81;97649.97;4457680;32;33544;-80
2023/04/14 11:06:52;;;;;;;4.63;1.57;;;;;;;12.31;90.98;97645.59;4457221;32;34768;-78
2023/04/14 11:09:30;;;;;;;0.77;0.77;;;;;;;12.29;91.46;97652.66;4455683;32;35863;-76
2023/04/14 11:12:22;;;;;;;0.75;0.75;;;;;;;12.03;92.15;97645.97;4453288;32;34267;-77
2023/04/14 11:14:55;;;;;;;4.03;2.12;;;;;;;11.58;97.99;97635.66;4456158;32;33893;-77
2023/04/14 11:17:28;;;;;;;0.62;0.62;;;;;;;12.26;94.69;97632.75;4423075;32;1091843;-79
2023/04/14 11:19:56;;;;;;;0.95;0.95;;;;;;;12.45;92.94;97639.75;4457292;32;35129;-75
2023/04/14 11:22:39;;;;;;;3.05;2.03;;;;;;;12.19;93.96;97633.94;4451558;32;34540;-83
2023/04/14 11:25:14;;;;;;;2.08;1.87;;;;;;;12.53;91.23;97629.81;4468430;32;33447;-75
2023/04/14 11:27:44;;;;;;;3.40;3.10;;;;;;;12.37;93.80;97628.81;4458617;32;33934;-77
2023/04/14 11:30:14;;;;;;;1.33;1.10;;;;;;;12.10;94.66;97626.53;4461024;32;35785;-86
2023/04/14 11:32:55;;;;;;;0.95;0.75;;;;;;;12.27;95.24;97628.41;4472514;32;34466;-77
2023/04/14 11:35:25;;;;;;;1.15;1.05;;;;;;;12.30;93.73;97621.28;4465726;32;34362;-77
2023/04/14 11:37:58;;;;;;;1.05;0.95;;;;;;;11.99;96.41;97626.16;4459377;32;33179;-77
2023/04/14 11:40:27;;;;;;;1.12;1.02;;;;;;;12.27;93.98;97626.62;4449267;32;34269;-82
2023/04/14 11:42:57;;;;;;;1.77;1.58;;;;;;;11.83;98.22;97639.00;4443870;32;33779;-77
2023/04/14 11:45:29;;;;;;;2.95;2.75;;;;;;;11.64;98.03;97639.78;4474280;32;33252;-82
2023/04/14 11:48:05;;;;;;;2.37;2.05;;;;;;;11.48;97.77;97634.34;4449347;32;32871;-79
2023/04/14 11:50:37;;;;;;;2.15;1.35;;;;;;;11.79;95.62;97634.81;4443436;32;33489;-78